Time;durP1;ratioP1;P1;durP2;ratioP2;P2;SDS_P1;SDS_P2;PMS_P1;PMS_P2;Temp;Humidity;BMP_temperature;BMP_pressure;BME280_temperature;BME280_humidity;BME280_pressure;Samples;Min_cycle;Max_cycle;Signal;HPM_P1;HPM_P2
2021/03/23 00:00:32;;;;;;;24.87;9.77;;;;;;;-0.15;100.00;96439.25;1038361;28;20387;-70
2021/03/23 00:01:03;;;;;;;;;;;;;;;-0.06;100.00;96456.22;1032908;28;20054;-70
2021/03/23 00:01:34;;;;;;;18.30;9.10;;;;;;;-0.08;100.00;96445.28;1039490;28;20047;-70
2021/03/23 00:02:09;;;;;;;21.77;10.03;;;;;;;-0.16;100.00;96446.19;1031162;28;20495;-71
2021/03/23 00:02:39;;;;;;;16.55;9.70;;;;;;;-0.12;100.00;96451.78;1034429;28;20081;-67
2021/03/23 00:03:15;;;;;;;22.10;10.80;;;;;;;-0.21;100.00;96445.91;1035084;28;20042;-71
2021/03/23 00:03:47;;;;;;;20.38;10.35;;;;;;;-0.15;100.00;96450.34;1036469;28;20182;-70
2021/03/23 00:04:18;;;;;;;22.02;12.23;;;;;;;-0.14;100.00;96456.31;1034000;28;20026;-69
2021/03/23 00:04:49;;;;;;;23.65;10.55;;;;;;;-0.15;100.00;96454.72;1035111;28;20088;-71
2021/03/23 00:05:20;;;;;;;21.00;10.85;;;;;;;-0.17;100.00;96457.44;1035730;28;20372;-70
2021/03/23 00:05:50;;;;;;;24.57;10.77;;;;;;;-0.19;100.00;96458.63;1035644;28;20025;-69
2021/03/23 00:06:22;;;;;;;22.17;11.03;;;;;;;-0.22;100.00;96454.63;1047596;28;20559;-71
2021/03/23 00:06:53;;;;;;;30.23;12.38;;;;;;;-0.32;100.00;96441.97;1039042;28;20109;-73
2021/03/23 00:07:23;;;;;;;20.63;10.47;;;;;;;-0.24;100.00;96454.78;1035164;28;20037;-70
2021/03/23 00:07:54;;;;;;;24.17;11.13;;;;;;;-0.27;100.00;96446.59;1035245;28;20022;-70
2021/03/23 00:08:26;;;;;;;21.77;10.53;;;;;;;-0.25;100.00;96458.34;1035261;28;20125;-72
2021/03/23 00:08:58;;;;;;;24.38;10.60;;;;;;;-0.33;100.00;96442.97;1035754;28;20041;-70
2021/03/23 00:09:28;;;;;;;22.75;10.38;;;;;;;-0.24;100.00;96456.56;1038774;28;20567;-70
2021/03/23 00:09:59;;;;;;;19.77;10.90;;;;;;;-0.34;100.00;96443.13;1035337;28;20085;-70
2021/03/23 00:10:29;;;;;;;23.73;11.80;;;;;;;-0.20;100.00;96457.00;1039164;28;20041;-71
2021/03/23 00:11:05;;;;;;;21.40;10.80;;;;;;;-0.23;100.00;96453.03;1034439;28;20034;-71
2021/03/23 00:11:40;;;;;;;19.52;10.88;;;;;;;-0.21;100.00;96460.56;1040199;28;20032;-71
2021/03/23 00:12:11;;;;;;;22.05;11.30;;;;;;;-0.20;100.00;96457.00;1035222;28;20037;-70
2021/03/23 00:12:41;;;;;;;20.53;11.47;;;;;;;-0.21;100.00;96465.72;1030744;28;20467;-71
2021/03/23 00:13:12;;;;;;;22.03;10.73;;;;;;;-0.24;100.00;96457.34;1028817;28;20019;-71
2021/03/23 00:13:43;;;;;;;19.03;10.40;;;;;;;-0.29;100.00;96451.16;1027460;28;20030;-72
2021/03/23 00:14:14;;;;;;;22.70;11.23;;;;;;;-0.26;100.00;96461.91;1035002;28;20461;-70
2021/03/23 00:14:44;;;;;;;23.03;11.40;;;;;;;-0.24;100.00;96461.72;1035429;28;20057;-71
2021/03/23 00:15:15;;;;;;;21.23;11.37;;;;;;;-0.25;100.00;96465.28;1035472;28;20499;-71
2021/03/23 00:15:46;;;;;;;23.90;11.05;;;;;;;-0.24;100.00;96462.50;1035335;28;20072;-70
2021/03/23 00:16:18;;;;;;;23.93;12.20;;;;;;;-0.30;100.00;96452.94;1030931;28;20096;-71
2021/03/23 00:16:49;;;;;;;27.33;11.23;;;;;;;-0.22;100.00;96464.13;1035060;28;20112;-69
2021/03/23 00:17:20;;;;;;;21.13;10.83;;;;;;;-0.23;100.00;96468.50;1030910;28;20030;-71
2021/03/23 00:17:50;;;;;;;23.23;11.00;;;;;;;-0.25;100.00;96463.50;1026846;28;20014;-71
2021/03/23 00:18:21;;;;;;;18.93;10.40;;;;;;;-0.26;100.00;96464.47;1027215;28;20030;-71
2021/03/23 00:18:51;;;;;;;28.70;11.03;;;;;;;-0.32;100.00;96454.88;1027714;28;20432;-71
2021/03/23 00:19:22;;;;;;;19.37;10.40;;;;;;;-0.27;100.00;96470.63;1034770;28;20022;-70
2021/03/23 00:19:52;;;;;;;27.40;11.67;;;;;;;-0.26;100.00;96474.00;1034938;28;20068;-67
2021/03/23 00:20:23;;;;;;;21.77;11.17;;;;;;;-0.27;100.00;96473.22;1034881;28;20025;-72
2021/03/23 00:20:53;;;;;;;23.10;10.73;;;;;;;-0.28;100.00;96471.59;1035149;28;20112;-71
2021/03/23 00:21:24;;;;;;;19.80;10.43;;;;;;;-0.27;100.00;96465.47;1038897;28;20014;-71
2021/03/23 00:21:54;;;;;;;26.17;11.60;;;;;;;-0.29;100.00;96471.78;1039404;28;20574;-71
2021/03/23 00:22:25;;;;;;;23.80;10.73;;;;;;;-0.29;100.00;96476.94;1039467;28;20018;-70
2021/03/23 00:22:55;;;;;;;22.70;11.43;;;;;;;-0.28;100.00;96470.78;1040903;28;20021;-68
2021/03/23 00:23:26;;;;;;;20.00;11.30;;;;;;;-0.30;100.00;96470.97;1043275;28;20013;-71
2021/03/23 00:23:57;;;;;;;22.47;10.83;;;;;;;-0.29;100.00;96470.00;1047670;28;20405;-71
2021/03/23 00:24:27;;;;;;;21.07;10.53;;;;;;;-0.27;100.00;96473.22;1043086;28;20009;-71
2021/03/23 00:24:58;;;;;;;21.07;10.30;;;;;;;-0.27;100.00;96475.78;1039118;28;20025;-71
2021/03/23 00:25:28;;;;;;;22.13;10.20;;;;;;;-0.33;100.00;96467.94;1039068;28;20501;-71
2021/03/23 00:25:59;;;;;;;22.10;11.13;;;;;;;-0.27;100.00;96473.22;1035446;28;20021;-71
2021/03/23 00:26:29;;;;;;;22.83;11.00;;;;;;;-0.28;100.00;96476.75;1042469;28;20013;-70
2021/03/23 00:27:00;;;;;;;21.37;11.07;;;;;;;-0.27;100.00;96475.78;1039381;28;20006;-71
2021/03/23 00:27:30;;;;;;;20.10;10.07;;;;;;;-0.31;100.00;96468.56;1035251;28;20018;-71
2021/03/23 00:28:01;;;;;;;19.03;11.30;;;;;;;-0.32;100.00;96467.75;1039049;28;20045;-71
2021/03/23 00:28:31;;;;;;;17.63;10.53;;;;;;;-0.31;100.00;96465.97;1035434;28;20026;-69
2021/03/23 00:29:02;;;;;;;25.23;10.93;;;;;;;-0.29;100.00;96464.84;1035187;28;20125;-70
2021/03/23 00:29:33;;;;;;;19.87;10.83;;;;;;;-0.24;100.00;96475.41;1026807;28;20011;-71
2021/03/23 00:30:05;;;;;;;34.30;11.93;;;;;;;-0.26;100.00;96472.22;1034409;28;20029;-68
2021/03/23 00:30:36;;;;;;;27.67;11.77;;;;;;;-0.24;100.00;96462.50;1035379;28;20109;-72
2021/03/23 00:31:06;;;;;;;23.00;10.43;;;;;;;-0.33;100.00;96455.06;1035313;28;20124;-70
2021/03/23 00:31:37;;;;;;;21.10;11.20;;;;;;;-0.23;100.00;96471.06;1034676;28;20017;-70
2021/03/23 00:32:08;;;;;;;22.33;11.00;;;;;;;-0.24;100.00;96477.19;1035277;28;20080;-70
2021/03/23 00:32:38;;;;;;;22.20;10.60;;;;;;;-0.24;100.00;96467.66;1035222;28;20072;-71
2021/03/23 00:33:09;;;;;;;21.60;10.87;;;;;;;-0.21;100.00;96473.47;1038977;28;20287;-71
2021/03/23 00:33:39;;;;;;;22.10;10.97;;;;;;;-0.21;100.00;96468.31;1039032;28;20371;-70
2021/03/23 00:34:09;;;;;;;20.07;10.67;;;;;;;-0.20;100.00;96467.31;1039326;28;20376;-70
2021/03/23 00:34:40;;;;;;;21.13;10.63;;;;;;;-0.18;100.00;96467.94;1043006;28;20017;-70
2021/03/23 00:35:10;;;;;;;23.50;10.77;;;;;;;-0.18;100.00;96470.53;1043451;28;20032;-71
2021/03/23 00:35:41;;;;;;;24.10;11.43;;;;;;;-0.16;100.00;96473.75;1043327;28;20440;-70
2021/03/23 00:36:12;;;;;;;22.97;10.87;;;;;;;-0.16;100.00;96466.81;1039151;28;20124;-71
2021/03/23 00:36:42;;;;;;;22.83;11.20;;;;;;;-0.15;100.00;96472.75;1034962;28;20018;-70
2021/03/23 00:37:13;;;;;;;21.50;12.67;;;;;;;-0.16;100.00;96466.00;1035234;28;20750;-71
2021/03/23 00:37:44;;;;;;;23.90;11.40;;;;;;;-0.21;100.00;96465.72;1027258;28;20456;-70
2021/03/23 00:38:14;;;;;;;20.33;11.40;;;;;;;-0.22;100.00;96452.03;1030435;28;20034;-71
2021/03/23 00:38:45;;;;;;;25.17;11.87;;;;;;;-0.15;100.00;96465.03;1035277;28;20014;-71
2021/03/23 00:39:15;;;;;;;21.83;10.73;;;;;;;-0.16;100.00;96460.84;1035023;28;20072;-71
2021/03/23 00:39:46;;;;;;;25.73;11.60;;;;;;;-0.17;100.00;96462.59;1034856;28;20037;-70
2021/03/23 00:40:17;;;;;;;24.93;11.40;;;;;;;-0.17;100.00;96461.81;1033974;28;20022;-72
2021/03/23 00:40:48;;;;;;;22.50;11.20;;;;;;;-0.15;100.00;96465.03;1035277;28;20033;-71
2021/03/23 00:41:18;;;;;;;20.30;10.93;;;;;;;-0.16;100.00;96461.66;1039445;28;20176;-71
2021/03/23 00:41:49;;;;;;;23.70;11.20;;;;;;;-0.15;100.00;96465.03;1036714;28;20067;-70
2021/03/23 00:42:19;;;;;;;23.00;11.33;;;;;;;-0.14;100.00;96466.63;1034984;28;20026;-71
2021/03/23 00:42:50;;;;;;;21.60;11.30;;;;;;;-0.14;100.00;96461.47;1035423;28;20452;-71
2021/03/23 00:43:20;;;;;;;23.30;11.50;;;;;;;-0.24;100.00;96451.41;1038712;28;20148;-71
2021/03/23 00:43:51;;;;;;;22.57;11.00;;;;;;;-0.16;100.00;96463.44;1039304;28;20029;-71
2021/03/23 00:44:21;;;;;;;22.20;11.20;;;;;;;-0.15;100.00;96462.44;1035204;28;20100;-71
2021/03/23 00:44:52;;;;;;;25.97;12.13;;;;;;;-0.15;100.00;96465.81;1034913;28;20080;-70
2021/03/23 00:45:23;;;;;;;24.37;12.23;;;;;;;-0.20;100.00;96457.00;1035405;28;20471;-72
2021/03/23 00:45:53;;;;;;;22.25;12.10;;;;;;;-0.20;100.00;96457.00;1035721;28;20018;-71
2021/03/23 00:46:24;;;;;;;23.10;11.43;;;;;;;-0.16;100.00;96463.44;1039262;28;20545;-71
2021/03/23 00:46:54;;;;;;;18.60;11.10;;;;;;;-0.23;100.00;96453.03;1036800;28;20037;-71
2021/03/23 00:47:25;;;;;;;22.13;11.30;;;;;;;-0.22;100.00;96454.63;1039281;28;20414;-72
2021/03/23 00:47:55;;;;;;;24.93;11.37;;;;;;;-0.22;100.00;96452.03;1035206;28;20025;-70
2021/03/23 00:48:26;;;;;;;26.80;13.43;;;;;;;-0.15;100.00;96465.03;1034326;28;20029;-70
2021/03/23 00:48:56;;;;;;;25.00;12.97;;;;;;;-0.25;100.00;96450.59;1031035;28;20034;-71
2021/03/23 00:49:27;;;;;;;19.70;11.27;;;;;;;-0.16;100.00;96464.22;1031059;28;20404;-71
2021/03/23 00:49:57;;;;;;;22.20;11.80;;;;;;;-0.18;100.00;96461.00;1030788;28;20218;-72
2021/03/23 00:50:28;;;;;;;22.43;11.43;;;;;;;-0.18;100.00;96462.78;1038076;28;20028;-72
2021/03/23 00:50:58;;;;;;;20.97;11.83;;;;;;;-0.21;100.00;96455.41;1043323;28;20017;-71
2021/03/23 00:51:29;;;;;;;25.83;11.20;;;;;;;-0.24;100.00;96452.19;1039361;28;20009;-71
2021/03/23 00:51:59;;;;;;;22.57;11.17;;;;;;;-0.21;100.00;96460.56;1039089;28;20025;-71
2021/03/23 00:52:30;;;;;;;21.83;11.90;;;;;;;-0.21;100.00;96463.16;1035198;28;20025;-70
2021/03/23 00:53:00;;;;;;;22.67;11.50;;;;;;;-0.21;100.00;96468.31;1034842;28;20033;-71
2021/03/23 00:53:31;;;;;;;23.17;12.33;;;;;;;-0.30;100.00;96447.78;1034643;28;20820;-71
2021/03/23 00:54:01;;;;;;;28.77;12.17;;;;;;;-0.25;100.00;96460.91;1035127;28;20511;-71
2021/03/23 00:54:32;;;;;;;26.70;11.90;;;;;;;-0.25;100.00;96460.13;1039173;28;20113;-70
2021/03/23 00:55:04;;;;;;;25.70;13.17;;;;;;;-0.26;100.00;96458.53;1035104;28;20506;-71
2021/03/23 00:55:34;;;;;;;26.30;12.02;;;;;;;-0.26;100.00;96461.91;1035329;28;20036;-71
2021/03/23 00:56:05;;;;;;;21.40;12.20;;;;;;;-0.28;100.00;96456.13;1043331;28;20060;-72
2021/03/23 00:56:35;;;;;;;27.37;12.53;;;;;;;-0.27;100.00;96462.91;1039282;28;20510;-69
2021/03/23 00:57:06;;;;;;;21.67;11.60;;;;;;;-0.28;100.00;96458.69;1038945;28;20402;-71
2021/03/23 00:57:36;;;;;;;26.77;12.00;;;;;;;-0.31;100.00;96464.19;1035073;28;20026;-71
2021/03/23 00:58:07;;;;;;;25.57;12.63;;;;;;;-0.31;100.00;96465.97;1035410;28;20033;-70
2021/03/23 00:58:37;;;;;;;31.43;11.70;;;;;;;-0.33;100.00;96461.00;1042872;28;20036;-69
2021/03/23 00:59:08;;;;;;;20.93;12.60;;;;;;;-0.36;100.00;96463.94;1047398;28;20024;-71
2021/03/23 00:59:38;;;;;;;22.60;11.57;;;;;;;-0.38;100.00;96458.16;1039095;28;20029;-72
2021/03/23 01:00:10;;;;;;;25.47;12.60;;;;;;;-0.41;100.00;96455.91;1038550;28;20026;-71
2021/03/23 01:00:41;;;;;;;24.25;12.55;;;;;;;-0.41;100.00;96455.91;1034427;28;20499;-70
2021/03/23 01:01:11;;;;;;;24.93;11.70;;;;;;;-0.43;100.00;96454.50;1031541;28;20034;-70
2021/03/23 01:01:42;;;;;;;23.50;12.43;;;;;;;-0.43;100.00;96463.03;1035149;28;20491;-71
2021/03/23 01:02:12;;;;;;;22.77;12.27;;;;;;;-0.48;100.00;96452.44;1035010;28;20022;-70
2021/03/23 01:02:43;;;;;;;29.43;11.87;;;;;;;-0.46;100.00;96463.38;1039233;28;20100;-71
2021/03/23 01:03:13;;;;;;;26.47;13.13;;;;;;;-0.47;100.00;96461.78;1043058;28;20044;-72
2021/03/23 01:03:44;;;;;;;23.70;12.00;;;;;;;-0.49;100.00;96464.53;1038654;28;20033;-71
2021/03/23 01:04:14;;;;;;;26.07;12.47;;;;;;;-0.52;100.00;96458.94;1039181;28;20017;-69
2021/03/23 01:04:45;;;;;;;26.93;13.00;;;;;;;-0.52;100.00;96457.16;1035167;28;20030;-70
2021/03/23 01:05:17;;;;;;;24.80;12.60;;;;;;;-0.50;100.00;96467.31;1030757;28;20022;-71
2021/03/23 01:05:50;;;;;;;28.05;13.23;;;;;;;-0.52;100.00;96458.94;1026349;28;20023;-71
2021/03/23 01:06:20;;;;;;;22.75;12.00;;;;;;;-0.54;100.00;96455.72;1030957;28;20030;-71
2021/03/23 01:06:51;;;;;;;29.70;13.77;;;;;;;-0.54;100.00;96455.72;1034943;28;20120;-71
2021/03/23 01:07:21;;;;;;;22.87;12.50;;;;;;;-0.53;100.00;96462.50;1036195;28;20037;-70
2021/03/23 01:07:51;;;;;;;25.47;12.37;;;;;;;-0.56;100.00;96462.84;1039162;28;20037;-70
2021/03/23 01:08:22;;;;;;;28.37;13.13;;;;;;;-0.56;100.00;96455.91;1039183;28;20533;-70
2021/03/23 01:08:52;;;;;;;22.43;12.53;;;;;;;-0.64;100.00;96444.84;1037596;28;20133;-70
2021/03/23 01:09:23;;;;;;;28.67;12.57;;;;;;;-0.56;100.00;96461.06;1038894;28;20029;-70
2021/03/23 01:09:53;;;;;;;18.83;11.40;;;;;;;-0.57;100.00;96458.63;1038823;28;20029;-69
2021/03/23 01:10:25;;;;;;;24.60;13.43;;;;;;;-0.59;100.00;96460.59;1047048;28;20020;-70
2021/03/23 01:10:55;;;;;;;24.80;12.52;;;;;;;-0.60;100.00;96456.44;1034922;28;20400;-70
2021/03/23 01:11:25;;;;;;;26.03;12.50;;;;;;;-0.58;100.00;96465.56;1030765;28;20101;-71
2021/03/23 01:11:56;;;;;;;29.07;13.30;;;;;;;-0.56;100.00;96463.63;1030986;28;20487;-71
2021/03/23 01:12:26;;;;;;;23.90;12.70;;;;;;;-0.66;100.00;96450.19;1034380;28;20438;-69
2021/03/23 01:12:57;;;;;;;22.73;12.10;;;;;;;-0.59;100.00;96458.03;1035070;28;20121;-69
2021/03/23 01:13:27;;;;;;;25.87;13.57;;;;;;;-0.58;100.00;96460.41;1034748;28;20034;-71
2021/03/23 01:13:58;;;;;;;23.77;12.63;;;;;;;-0.59;100.00;96458.03;1034949;28;20029;-72
2021/03/23 01:14:28;;;;;;;23.73;13.43;;;;;;;-0.66;100.00;96444.25;1035102;28;20381;-71
2021/03/23 01:14:59;;;;;;;31.43;12.53;;;;;;;-0.58;100.00;96459.63;1027205;28;20031;-71
2021/03/23 01:15:31;;;;;;;29.73;12.67;;;;;;;-0.87;100.00;96407.06;1030626;28;20022;-71
2021/03/23 01:16:04;;;;;;;27.50;12.45;;;;;;;-0.56;100.00;96462.84;1031087;28;20473;-72
2021/03/23 01:16:34;;;;;;;22.10;11.75;;;;;;;-0.58;100.00;96460.41;1034931;28;20025;-69
2021/03/23 01:17:05;;;;;;;23.67;12.93;;;;;;;-0.59;100.00;96458.03;1035756;28;20030;-71
2021/03/23 01:17:36;;;;;;;25.05;12.20;;;;;;;-0.60;100.00;96456.44;1034320;28;20029;-69
2021/03/23 01:18:06;;;;;;;25.60;13.10;;;;;;;-0.60;100.00;96453.88;1035786;28;20575;-71
2021/03/23 01:18:37;;;;;;;23.23;12.60;;;;;;;-0.69;100.00;96439.44;1039196;28;20025;-71
2021/03/23 01:19:07;;;;;;;24.20;12.63;;;;;;;-0.61;100.00;96449.66;1038842;28;20021;-72
2021/03/23 01:19:37;;;;;;;21.70;12.67;;;;;;;-0.61;100.00;96453.03;1042975;28;20412;-71
2021/03/23 01:20:09;;;;;;;28.57;13.20;;;;;;;-0.61;100.00;96455.63;1038578;28;20056;-72
2021/03/23 01:20:40;;;;;;;25.55;13.18;;;;;;;-0.60;100.00;96451.28;1031084;28;20014;-71
2021/03/23 01:21:10;;;;;;;26.60;12.40;;;;;;;-0.64;100.00;96447.44;1035196;28;20216;-70
2021/03/23 01:21:41;;;;;;;26.03;12.60;;;;;;;-0.60;100.00;96457.22;1035032;28;20531;-70
2021/03/23 01:22:11;;;;;;;27.80;13.37;;;;;;;-0.59;100.00;96455.44;1035116;28;20033;-71
2021/03/23 01:22:41;;;;;;;22.47;12.60;;;;;;;-0.61;100.00;96454.81;1034925;28;20022;-70
2021/03/23 01:23:12;;;;;;;24.40;13.20;;;;;;;-0.61;100.00;96454.81;1031104;28;20066;-71
2021/03/23 01:23:43;;;;;;;29.33;13.47;;;;;;;-0.63;100.00;96452.44;1030740;28;20026;-70
2021/03/23 01:24:13;;;;;;;34.03;14.07;;;;;;;-0.68;100.00;96446.19;1034751;28;20452;-71
2021/03/23 01:24:44;;;;;;;27.57;13.40;;;;;;;-0.62;100.00;96456.59;1035132;28;20026;-69
2021/03/23 01:25:14;;;;;;;24.97;13.30;;;;;;;-0.62;100.00;96454.03;1035032;28;20057;-72
2021/03/23 01:25:45;;;;;;;25.93;12.70;;;;;;;-0.61;100.00;96454.81;1034741;28;20033;-69
2021/03/23 01:26:15;;;;;;;25.30;13.40;;;;;;;-0.61;100.00;96453.03;1039423;28;20074;-71
2021/03/23 01:26:46;;;;;;;21.17;12.57;;;;;;;-0.60;100.00;96451.28;1047659;28;20123;-70
2021/03/23 01:27:16;;;;;;;31.50;13.80;;;;;;;-0.57;100.00;96454.31;1047369;28;20020;-70
2021/03/23 01:27:49;;;;;;;29.23;13.30;;;;;;;-0.54;100.00;96456.53;1042686;28;20029;-70
2021/03/23 01:28:19;;;;;;;28.80;13.40;;;;;;;-0.65;100.00;96432.94;1043186;28;20043;-69
2021/03/23 01:28:50;;;;;;;24.20;13.83;;;;;;;-0.55;100.00;96451.53;1043370;28;20029;-71
2021/03/23 01:29:20;;;;;;;28.50;13.80;;;;;;;-0.55;100.00;96448.97;1043214;28;20021;-70
2021/03/23 01:29:51;;;;;;;26.47;13.60;;;;;;;-0.56;100.00;96453.31;1039069;28;20432;-71
2021/03/23 01:30:23;;;;;;;27.00;13.77;;;;;;;-0.60;100.00;96440.97;1042621;28;20017;-69
2021/03/23 01:30:54;;;;;;;24.20;14.13;;;;;;;-0.59;100.00;96437.41;1030820;28;20021;-70
2021/03/23 01:31:24;;;;;;;30.43;13.87;;;;;;;-0.59;100.00;96440.78;1034922;28;20109;-71
2021/03/23 01:31:55;;;;;;;25.50;13.97;;;;;;;-0.50;100.00;96452.63;1038934;28;20463;-72
2021/03/23 01:32:26;;;;;;;25.85;13.68;;;;;;;-0.47;100.00;96451.47;1043240;28;20112;-68
2021/03/23 01:32:56;;;;;;;25.10;13.93;;;;;;;-0.48;100.00;96450.66;1047092;28;20028;-71
2021/03/23 01:33:27;;;;;;;27.80;13.10;;;;;;;-0.46;100.00;96447.94;1043403;28;20025;-71
2021/03/23 01:33:57;;;;;;;31.70;13.67;;;;;;;-0.48;100.00;96450.66;1043164;28;20025;-68
2021/03/23 01:34:28;;;;;;;33.97;14.40;;;;;;;-0.55;100.00;96433.50;1043038;28;20029;-70
2021/03/23 01:34:58;;;;;;;31.47;14.10;;;;;;;-0.48;100.00;96447.28;1039120;28;20026;-70
2021/03/23 01:35:29;;;;;;;23.37;13.33;;;;;;;-0.50;100.00;96444.91;1039093;28;20067;-71
2021/03/23 01:35:59;;;;;;;27.27;13.73;;;;;;;-0.50;100.00;96447.47;1038869;28;20024;-71
2021/03/23 01:36:29;;;;;;;29.93;14.67;;;;;;;-0.56;100.00;96437.06;1039157;28;20029;-69
2021/03/23 01:37:00;;;;;;;28.57;14.57;;;;;;;-0.50;100.00;96451.84;1039166;28;20021;-71
2021/03/23 01:37:30;;;;;;;25.70;14.87;;;;;;;-0.50;100.00;96446.69;1035017;28;20523;-70
2021/03/23 01:38:01;;;;;;;25.63;14.60;;;;;;;-0.57;100.00;96432.88;1041771;28;20051;-70
2021/03/23 01:38:31;;;;;;;26.53;13.50;;;;;;;-0.51;100.00;96442.47;1034797;28;20034;-71
2021/03/23 01:39:03;;;;;;;33.83;15.50;;;;;;;-0.53;100.00;96441.88;1035125;28;20029;-71
2021/03/23 01:39:33;;;;;;;30.23;14.23;;;;;;;-0.55;100.00;96436.09;1036626;28;20037;-70
2021/03/23 01:40:05;;;;;;;28.17;14.20;;;;;;;-0.53;100.00;96441.88;1033078;28;20030;-69
2021/03/23 01:40:36;;;;;;;31.48;14.63;;;;;;;-0.55;100.00;96438.66;1034899;28;20064;-69
2021/03/23 01:41:07;;;;;;;38.33;16.27;;;;;;;-0.56;100.00;96437.06;1039853;28;20041;-69
2021/03/23 01:41:37;;;;;;;36.53;15.20;;;;;;;-0.56;100.00;96442.22;1047136;28;20059;-69
2021/03/23 01:42:09;;;;;;;27.40;14.27;;;;;;;-0.57;100.00;96438.03;1047358;28;20027;-69
2021/03/23 01:42:54;;;;;;;30.17;14.90;;;;;;;-0.57;100.00;96436.28;1038844;28;20037;-71
2021/03/23 01:43:29;;;;;;;27.92;14.05;;;;;;;-0.64;100.00;96429.38;1034787;28;20040;-71
2021/03/23 01:44:00;;;;;;;32.30;14.65;;;;;;;-0.68;100.00;96417.84;1031009;28;20116;-72
2021/03/23 01:44:30;;;;;;;30.17;14.97;;;;;;;-0.61;100.00;96436.78;1030803;28;20031;-71
2021/03/23 01:45:19;;;;;;;26.50;13.70;;;;;;;-0.62;100.00;96435.97;1032321;28;20365;-71
2021/03/23 01:45:49;;;;;;;31.92;14.40;;;;;;;-0.64;100.00;96429.38;1044729;28;20029;-70
2021/03/23 01:46:39;;;;;;;28.50;14.37;;;;;;;-0.66;100.00;96431.38;1045634;28;20039;-72
2021/03/23 01:47:09;;;;;;;30.42;14.05;;;;;;;-0.66;100.00;96433.94;1039197;28;20494;-70
2021/03/23 01:47:40;;;;;;;31.77;14.87;;;;;;;-0.68;100.00;96428.16;1030728;28;20125;-68
2021/03/23 01:48:32;;;;;;;27.90;14.63;;;;;;;-0.71;100.00;96430.09;1024725;28;20026;-70
2021/03/23 01:49:03;;;;;;;28.42;14.05;;;;;;;-0.72;100.00;96438.81;1028985;28;20085;-69
2021/03/23 01:49:36;;;;;;;29.03;15.73;;;;;;;-0.72;100.00;96435.44;1030871;28;20085;-70
2021/03/23 01:50:06;;;;;;;30.90;14.38;;;;;;;-0.82;100.00;96422.78;1030883;28;20049;-70
2021/03/23 01:50:37;;;;;;;28.63;14.77;;;;;;;-0.82;100.00;96422.00;1031148;28;20034;-71
2021/03/23 01:51:07;;;;;;;28.77;14.80;;;;;;;-0.84;100.00;96424.75;1031374;28;20129;-71
2021/03/23 01:51:38;;;;;;;27.77;13.80;;;;;;;-0.79;100.00;96422.44;1030931;28;20077;-71
2021/03/23 01:52:16;;;;;;;27.90;14.77;;;;;;;-0.79;100.00;96431.94;1031238;28;20019;-71
2021/03/23 01:52:49;;;;;;;30.88;14.43;;;;;;;-0.80;100.00;96431.16;1034753;28;20030;-72
2021/03/23 01:53:41;;;;;;;37.03;16.08;;;;;;;-0.80;100.00;96428.56;1034882;28;20395;-71
2021/03/23 01:54:15;;;;;;;30.63;14.43;;;;;;;-0.83;100.00;96425.56;1031055;28;20026;-71
2021/03/23 01:54:49;;;;;;;32.90;14.20;;;;;;;-0.85;100.00;96428.28;1034465;28;20033;-72
2021/03/23 01:55:19;;;;;;;28.33;14.38;;;;;;;-0.87;100.00;96425.09;1036105;28;20014;-71
2021/03/23 01:55:49;;;;;;;30.97;14.63;;;;;;;-0.86;100.00;96426.69;1035019;28;20495;-71
2021/03/23 01:56:20;;;;;;;34.60;16.40;;;;;;;-0.89;100.00;96424.47;1030931;28;20400;-72
2021/03/23 01:56:51;;;;;;;36.90;15.10;;;;;;;-0.88;100.00;96425.25;1022677;28;20024;-71
2021/03/23 01:57:21;;;;;;;28.93;14.83;;;;;;;-0.91;100.00;96423.81;1034894;28;20514;-71
2021/03/23 01:57:52;;;;;;;33.53;16.20;;;;;;;-0.96;100.00;96416.63;1030866;28;20273;-71
2021/03/23 01:58:22;;;;;;;34.97;15.87;;;;;;;-0.98;100.00;96418.56;1030805;28;20011;-71
2021/03/23 01:58:53;;;;;;;28.37;14.90;;;;;;;-0.91;100.00;96423.81;1034735;28;20633;-71
2021/03/23 01:59:23;;;;;;;33.73;16.77;;;;;;;-0.91;100.00;96431.53;1030714;28;20014;-73
2021/03/23 01:59:56;;;;;;;30.40;15.13;;;;;;;-1.04;100.00;96408.97;1034451;28;20014;-70
2021/03/23 02:00:26;;;;;;;32.53;15.02;;;;;;;-1.01;100.00;96416.31;1030342;28;20061;-70
2021/03/23 02:00:57;;;;;;;29.53;14.93;;;;;;;-0.93;100.00;96422.41;1026808;28;20531;-72
2021/03/23 02:01:27;;;;;;;31.57;15.10;;;;;;;-0.97;100.00;96424.53;1030651;28;20026;-71
2021/03/23 02:01:59;;;;;;;35.03;15.60;;;;;;;-1.01;100.00;96424.06;1035292;28;20006;-72
2021/03/23 02:02:29;;;;;;;31.95;15.48;;;;;;;-1.01;100.00;96423.25;1039328;28;20013;-72
2021/03/23 02:03:00;;;;;;;31.97;14.97;;;;;;;-1.08;100.00;96418.00;1039153;28;20025;-71
2021/03/23 02:03:31;;;;;;;30.20;15.17;;;;;;;-1.04;100.00;96424.44;1034627;28;20026;-68
2021/03/23 02:04:01;;;;;;;34.60;15.70;;;;;;;-1.14;100.00;96407.59;1034024;28;20186;-71
2021/03/23 02:04:32;;;;;;;32.70;16.13;;;;;;;-1.13;100.00;96412.56;1035126;28;20018;-69
2021/03/23 02:05:04;;;;;;;35.00;16.13;;;;;;;-1.07;100.00;96421.41;1030955;28;20477;-71
2021/03/23 02:05:34;;;;;;;34.90;16.52;;;;;;;-1.11;100.00;96412.38;1030933;28;20018;-72
2021/03/23 02:06:05;;;;;;;28.57;14.30;;;;;;;-1.15;100.00;96401.63;1035602;28;20021;-70
2021/03/23 02:06:42;;;;;;;33.73;15.33;;;;;;;-1.10;100.00;96419.16;1035671;28;20032;-72
2021/03/23 02:07:13;;;;;;;29.40;15.60;;;;;;;-1.12;100.00;96421.09;1035580;28;20105;-71
2021/03/23 02:07:43;;;;;;;30.37;15.83;;;;;;;-1.13;100.00;96415.16;1043557;28;20029;-72
2021/03/23 02:08:13;;;;;;;35.53;16.07;;;;;;;-1.14;100.00;96417.88;1044039;28;20059;-72
2021/03/23 02:08:44;;;;;;;33.03;15.97;;;;;;;-1.14;100.00;96415.31;1039335;28;20014;-70
2021/03/23 02:09:23;;;;;;;30.63;16.03;;;;;;;-1.15;100.00;96418.84;1035733;28;20022;-71
2021/03/23 02:09:54;;;;;;;32.03;16.20;;;;;;;-1.18;100.00;96417.44;1036446;28;20085;-71
2021/03/23 02:10:25;;;;;;;36.73;16.67;;;;;;;-1.21;100.00;96418.59;1031516;28;20022;-71
2021/03/23 02:10:57;;;;;;;31.93;16.30;;;;;;;-1.32;100.00;96400.16;1024906;28;20015;-70
2021/03/23 02:11:27;;;;;;;34.20;17.30;;;;;;;-1.25;100.00;96416.50;1027813;28;20530;-71
2021/03/23 02:12:00;;;;;;;39.00;17.57;;;;;;;-1.26;100.00;96415.72;1035582;28;20109;-71
2021/03/23 02:12:31;;;;;;;37.00;18.10;;;;;;;-1.26;100.00;96417.50;1031253;28;20018;-71
2021/03/23 02:13:03;;;;;;;35.53;16.63;;;;;;;-1.28;100.00;96415.06;1035648;28;20091;-71
2021/03/23 02:13:34;;;;;;;31.30;17.00;;;;;;;-1.29;100.00;96421.19;1035385;28;20538;-72
2021/03/23 02:14:04;;;;;;;35.43;16.37;;;;;;;-1.29;100.00;96417.84;1030998;28;20025;-72
2021/03/23 02:14:38;;;;;;;30.80;16.53;;;;;;;-1.26;100.00;96415.72;1031623;28;20018;-71
2021/03/23 02:15:09;;;;;;;34.67;17.00;;;;;;;-1.28;100.00;96422.00;1035568;28;20426;-72
2021/03/23 02:15:39;;;;;;;31.55;16.48;;;;;;;-1.31;100.00;96418.03;1035185;28;20038;-69
2021/03/23 02:16:10;;;;;;;33.13;16.07;;;;;;;-1.31;100.00;96419.75;1032715;28;20022;-69
2021/03/23 02:16:40;;;;;;;34.30;17.70;;;;;;;-1.26;100.00;96423.44;1039986;28;20033;-72
2021/03/23 02:17:22;;;;;;;32.70;16.23;;;;;;;-1.28;100.00;96417.66;1039763;28;20132;-71
2021/03/23 02:18:10;;;;;;;35.53;17.92;;;;;;;-1.28;100.00;96417.66;1039588;28;20546;-70
2021/03/23 02:18:40;;;;;;;32.50;15.85;;;;;;;-1.30;100.00;96409.31;1039710;28;20037;-71
2021/03/23 02:19:12;;;;;;;36.20;16.27;;;;;;;-1.29;100.00;96417.84;1047434;28;20123;-70
2021/03/23 02:19:42;;;;;;;36.20;17.30;;;;;;;-1.30;100.00;96419.59;1047967;28;20436;-71
2021/03/23 02:20:17;;;;;;;39.73;16.90;;;;;;;-1.27;100.00;96413.31;1038827;28;20033;-70
2021/03/23 02:20:57;;;;;;;35.45;17.50;;;;;;;-1.30;100.00;96417.03;1035133;28;20522;-71
2021/03/23 02:21:28;;;;;;;37.83;17.20;;;;;;;-1.27;100.00;96413.31;1033638;28;20042;-71
2021/03/23 02:21:58;;;;;;;36.77;17.50;;;;;;;-1.34;100.00;96413.22;1037385;28;20025;-69
2021/03/23 02:22:31;;;;;;;36.50;18.07;;;;;;;-1.31;100.00;96405.16;1029772;28;20032;-71
2021/03/23 02:23:09;;;;;;;43.50;18.23;;;;;;;-1.28;100.00;96414.28;1031630;28;20080;-70